sensor_id;sensor_type;location;lat;lon;timestamp;temperature;humidity
79716;DHT22;69209;51.420;5.400;2023-05-10T00:00:33;16.40;96.00
79716;DHT22;69209;51.420;5.400;2023-05-10T00:02:59;16.40;96.00
79716;DHT22;69209;51.420;5.400;2023-05-10T00:05:24;16.40;96.00
79716;DHT22;69209;51.420;5.400;2023-05-10T00:07:50;16.40;96.00
79716;DHT22;69209;51.420;5.400;2023-05-10T00:10:15;16.40;96.00
79716;DHT22;69209;51.420;5.400;2023-05-10T00:12:41;16.40;96.00
79716;DHT22;69209;51.420;5.400;2023-05-10T00:15:07;16.30;96.00
79716;DHT22;69209;51.420;5.400;2023-05-10T00:17:33;16.30;96.00
79716;DHT22;69209;51.420;5.400;2023-05-10T00:19:58;16.30;96.00
79716;DHT22;69209;51.420;5.400;2023-05-10T00:22:24;16.30;96.00
79716;DHT22;69209;51.420;5.400;2023-05-10T00:24:49;16.30;96.10
79716;DHT22;69209;51.420;5.400;2023-05-10T00:27:15;16.30;96.10
79716;DHT22;69209;51.420;5.400;2023-05-10T00:29:41;16.30;96.10
79716;DHT22;69209;51.420;5.400;2023-05-10T00:32:06;16.30;96.10
79716;DHT22;69209;51.420;5.400;2023-05-10T00:34:32;16.30;96.10
79716;DHT22;69209;51.420;5.400;2023-05-10T00:36:57;16.30;96.10
79716;DHT22;69209;51.420;5.400;2023-05-10T00:39:23;16.30;96.10
79716;DHT22;69209;51.420;5.400;2023-05-10T00:41:48;16.30;96.10
79716;DHT22;69209;51.420;5.400;2023-05-10T00:44:14;16.30;96.10
79716;DHT22;69209;51.420;5.400;2023-05-10T00:46:40;16.30;96.10
79716;DHT22;69209;51.420;5.400;2023-05-10T00:49:05;16.30;96.00
79716;DHT22;69209;51.420;5.400;2023-05-10T00:51:31;16.30;96.00
79716;DHT22;69209;51.420;5.400;2023-05-10T00:53:57;16.30;96.10
79716;DHT22;69209;51.420;5.400;2023-05-10T00:56:23;16.30;96.00
79716;DHT22;69209;51.420;5.400;2023-05-10T00:58:50;16.30;96.00
79716;DHT22;69209;51.420;5.400;2023-05-10T01:01:15;16.30;96.10
79716;DHT22;69209;51.420;5.400;2023-05-10T01:03:41;16.30;96.00
79716;DHT22;69209;51.420;5.400;2023-05-10T01:06:07;16.30;96.00
79716;DHT22;69209;51.420;5.400;2023-05-10T01:08:32;16.30;96.00
79716;DHT22;69209;51.420;5.400;2023-05-10T01:10:58;16.30;96.00
79716;DHT22;69209;51.420;5.400;2023-05-10T01:13:31;16.20;96.00
79716;DHT22;69209;51.420;5.400;2023-05-10T01:15:58;16.20;96.00
79716;DHT22;69209;51.420;5.400;2023-05-10T01:18:23;16.30;96.00
79716;DHT22;69209;51.420;5.400;2023-05-10T01:20:53;16.20;96.00
79716;DHT22;69209;51.420;5.400;2023-05-10T01:23:35;16.20;96.00
79716;DHT22;69209;51.420;5.400;2023-05-10T01:26:14;16.20;96.00
79716;DHT22;69209;51.420;5.400;2023-05-10T01:31:22;16.20;96.10
79716;DHT22;69209;51.420;5.400;2023-05-10T01:33:55;16.20;96.10
79716;DHT22;69209;51.420;5.400;2023-05-10T01:41:45;16.20;96.10
79716;DHT22;69209;51.420;5.400;2023-05-10T01:46:41;16.20;96.10
79716;DHT22;69209;51.420;5.400;2023-05-10T01:49:08;16.20;96.10
79716;DHT22;69209;51.420;5.400;2023-05-10T01:51:39;16.20;96.20
79716;DHT22;69209;51.420;5.400;2023-05-10T01:54:06;16.10;96.10
79716;DHT22;69209;51.420;5.400;2023-05-10T01:56:33;16.10;96.20
79716;DHT22;69209;51.420;5.400;2023-05-10T01:59:00;16.10;96.20
79716;DHT22;69209;51.420;5.400;2023-05-10T02:01:29;16.10;96.30
79716;DHT22;69209;51.420;5.400;2023-05-10T02:03:55;16.10;96.30
79716;DHT22;69209;51.420;5.400;2023-05-10T02:06:20;16.10;96.30
79716;DHT22;69209;51.420;5.400;2023-05-10T02:08:47;16.00;96.30
79716;DHT22;69209;51.420;5.400;2023-05-10T02:11:14;16.10;96.40
79716;DHT22;69209;51.420;5.400;2023-05-10T02:13:40;16.00;96.30
79716;DHT22;69209;51.420;5.400;2023-05-10T02:16:07;16.00;96.30
79716;DHT22;69209;51.420;5.400;2023-05-10T02:18:33;16.10;96.30
79716;DHT22;69209;51.420;5.400;2023-05-10T02:21:00;16.00;96.30
79716;DHT22;69209;51.420;5.400;2023-05-10T02:23:26;16.00;96.30
79716;DHT22;69209;51.420;5.400;2023-05-10T02:25:53;16.10;96.30
79716;DHT22;69209;51.420;5.400;2023-05-10T02:28:19;16.10;96.30
79716;DHT22;69209;51.420;5.400;2023-05-10T02:30:46;16.10;96.30
79716;DHT22;69209;51.420;5.400;2023-05-10T02:33:12;16.00;96.20
79716;DHT22;69209;51.420;5.400;2023-05-10T02:35:38;16.00;96.20
79716;DHT22;69209;51.420;5.400;2023-05-10T02:38:04;16.00;96.30
79716;DHT22;69209;51.420;5.400;2023-05-10T02:40:31;16.00;96.30
79716;DHT22;69209;51.420;5.400;2023-05-10T02:42:58;16.00;96.30
79716;DHT22;69209;51.420;5.400;2023-05-10T02:45:26;16.00;96.40
79716;DHT22;69209;51.420;5.400;2023-05-10T02:47:53;15.90;96.50
79716;DHT22;69209;51.420;5.400;2023-05-10T02:50:19;15.90;96.50
79716;DHT22;69209;51.420;5.400;2023-05-10T02:52:49;15.90;96.50
79716;DHT22;69209;51.420;5.400;2023-05-10T02:55:17;15.90;96.50
79716;DHT22;69209;51.420;5.400;2023-05-10T02:57:56;15.90;96.50
79716;DHT22;69209;51.420;5.400;2023-05-10T03:00:23;15.90;96.50
79716;DHT22;69209;51.420;5.400;2023-05-10T03:02:49;15.90;96.50
79716;DHT22;69209;51.420;5.400;2023-05-10T03:05:15;15.90;96.50
79716;DHT22;69209;51.420;5.400;2023-05-10T03:07:40;15.90;96.50
79716;DHT22;69209;51.420;5.400;2023-05-10T03:10:06;15.90;96.50
79716;DHT22;69209;51.420;5.400;2023-05-10T03:18:06;15.90;96.50
79716;DHT22;69209;51.420;5.400;2023-05-10T03:20:41;15.90;96.50
79716;DHT22;69209;51.420;5.400;2023-05-10T03:23:11;15.90;96.50
79716;DHT22;69209;51.420;5.400;2023-05-10T03:25:37;15.90;96.50
79716;DHT22;69209;51.420;5.400;2023-05-10T03:28:03;15.90;96.50
79716;DHT22;69209;51.420;5.400;2023-05-10T03:30:29;15.90;96.50
79716;DHT22;69209;51.420;5.400;2023-05-10T03:32:56;15.90;96.50
79716;DHT22;69209;51.420;5.400;2023-05-10T03:35:22;15.90;96.50
79716;DHT22;69209;51.420;5.400;2023-05-10T03:37:48;15.90;96.50
79716;DHT22;69209;51.420;5.400;2023-05-10T03:40:14;15.90;96.50
79716;DHT22;69209;51.420;5.400;2023-05-10T03:42:39;15.90;96.50
79716;DHT22;69209;51.420;5.400;2023-05-10T03:45:05;15.90;96.50
79716;DHT22;69209;51.420;5.400;2023-05-10T03:47:31;15.90;96.50
79716;DHT22;69209;51.420;5.400;2023-05-10T03:49:56;15.90;96.50
79716;DHT22;69209;51.420;5.400;2023-05-10T03:52:22;15.80;96.50
79716;DHT22;69209;51.420;5.400;2023-05-10T03:54:47;15.90;96.50
79716;DHT22;69209;51.420;5.400;2023-05-10T03:57:13;15.80;96.50
79716;DHT22;69209;51.420;5.400;2023-05-10T03:59:38;15.80;96.50
79716;DHT22;69209;51.420;5.400;2023-05-10T04:02:04;15.80;96.50
79716;DHT22;69209;51.420;5.400;2023-05-10T04:04:30;15.80;96.50
79716;DHT22;69209;51.420;5.400;2023-05-10T04:06:55;15.80;96.50
79716;DHT22;69209;51.420;5.400;2023-05-10T04:09:21;15.80;96.50
79716;DHT22;69209;51.420;5.400;2023-05-10T04:11:46;15.80;96.50
79716;DHT22;69209;51.420;5.400;2023-05-10T04:14:12;15.80;96.50
79716;DHT22;69209;51.420;5.400;2023-05-10T04:16:37;15.80;96.50
79716;DHT22;69209;51.420;5.400;2023-05-10T04:19:03;15.80;96.50
79716;DHT22;69209;51.420;5.400;2023-05-10T04:21:29;15.80;96.50
79716;DHT22;69209;51.420;5.400;2023-05-10T04:23:54;15.80;96.50
79716;DHT22;69209;51.420;5.400;2023-05-10T04:26:20;15.80;96.50
79716;DHT22;69209;51.420;5.400;2023-05-10T04:28:45;15.80;96.50
79716;DHT22;69209;51.420;5.400;2023-05-10T04:31:11;15.80;96.50
79716;DHT22;69209;51.420;5.400;2023-05-10T04:33:37;15.80;96.50
79716;DHT22;69209;51.420;5.400;2023-05-10T04:36:03;15.80;96.40
79716;DHT22;69209;51.420;5.400;2023-05-10T04:38:28;15.80;96.40
79716;DHT22;69209;51.420;5.400;2023-05-10T04:40:54;15.90;96.40
79716;DHT22;69209;51.420;5.400;2023-05-10T04:43:20;15.80;96.30
79716;DHT22;69209;51.420;5.400;2023-05-10T04:45:45;15.90;96.20
79716;DHT22;69209;51.420;5.400;2023-05-10T04:48:11;15.90;96.20
79716;DHT22;69209;51.420;5.400;2023-05-10T04:50:37;15.90;96.20
79716;DHT22;69209;51.420;5.400;2023-05-10T04:53:02;15.90;96.20
79716;DHT22;69209;51.420;5.400;2023-05-10T04:55:28;15.90;96.10
79716;DHT22;69209;51.420;5.400;2023-05-10T04:57:53;15.90;96.10
79716;DHT22;69209;51.420;5.400;2023-05-10T05:00:22;15.90;96.10
79716;DHT22;69209;51.420;5.400;2023-05-10T05:02:47;15.90;96.10
79716;DHT22;69209;51.420;5.400;2023-05-10T05:05:13;15.90;95.90
79716;DHT22;69209;51.420;5.400;2023-05-10T05:07:38;16.00;95.80
79716;DHT22;69209;51.420;5.400;2023-05-10T05:10:05;16.10;95.70
79716;DHT22;69209;51.420;5.400;2023-05-10T05:12:31;16.10;95.50
79716;DHT22;69209;51.420;5.400;2023-05-10T05:14:57;16.30;95.20
79716;DHT22;69209;51.420;5.400;2023-05-10T05:17:22;16.30;95.10
79716;DHT22;69209;51.420;5.400;2023-05-10T05:19:48;16.40;95.00
79716;DHT22;69209;51.420;5.400;2023-05-10T05:22:13;16.40;94.90
79716;DHT22;69209;51.420;5.400;2023-05-10T05:24:39;16.40;94.80
79716;DHT22;69209;51.420;5.400;2023-05-10T05:27:04;16.50;94.70
79716;DHT22;69209;51.420;5.400;2023-05-10T05:29:31;16.50;94.80
79716;DHT22;69209;51.420;5.400;2023-05-10T05:31:56;16.50;94.80
79716;DHT22;69209;51.420;5.400;2023-05-10T05:34:22;16.50;94.70
79716;DHT22;69209;51.420;5.400;2023-05-10T05:36:47;16.60;94.70
79716;DHT22;69209;51.420;5.400;2023-05-10T05:39:13;16.60;94.50
79716;DHT22;69209;51.420;5.400;2023-05-10T05:41:39;16.70;94.40
79716;DHT22;69209;51.420;5.400;2023-05-10T05:44:04;16.70;94.50
79716;DHT22;69209;51.420;5.400;2023-05-10T05:46:30;16.60;94.50
79716;DHT22;69209;51.420;5.400;2023-05-10T05:48:55;16.60;94.70
79716;DHT22;69209;51.420;5.400;2023-05-10T05:51:21;16.50;94.90
79716;DHT22;69209;51.420;5.400;2023-05-10T05:53:46;16.50;94.90
79716;DHT22;69209;51.420;5.400;2023-05-10T05:56:12;16.60;94.80
79716;DHT22;69209;51.420;5.400;2023-05-10T05:58:37;16.60;94.60
79716;DHT22;69209;51.420;5.400;2023-05-10T06:01:03;16.70;94.40
79716;DHT22;69209;51.420;5.400;2023-05-10T06:03:29;16.80;94.20
79716;DHT22;69209;51.420;5.400;2023-05-10T06:05:54;16.80;94.20
79716;DHT22;69209;51.420;5.400;2023-05-10T06:08:20;16.90;94.10
79716;DHT22;69209;51.420;5.400;2023-05-10T06:10:45;16.90;94.30
79716;DHT22;69209;51.420;5.400;2023-05-10T06:13:11;16.90;94.20
79716;DHT22;69209;51.420;5.400;2023-05-10T06:15:37;17.00;94.10
79716;DHT22;69209;51.420;5.400;2023-05-10T06:18:02;17.10;93.90
79716;DHT22;69209;51.420;5.400;2023-05-10T06:20:28;17.10;93.80
79716;DHT22;69209;51.420;5.400;2023-05-10T06:22:53;17.10;93.90
79716;DHT22;69209;51.420;5.400;2023-05-10T06:25:19;17.10;93.90
79716;DHT22;69209;51.420;5.400;2023-05-10T06:27:44;17.20;93.80
79716;DHT22;69209;51.420;5.400;2023-05-10T06:30:10;17.30;93.60
79716;DHT22;69209;51.420;5.400;2023-05-10T06:32:38;17.30;93.60
79716;DHT22;69209;51.420;5.400;2023-05-10T06:35:04;17.40;93.60
79716;DHT22;69209;51.420;5.400;2023-05-10T06:37:29;17.40;93.60
79716;DHT22;69209;51.420;5.400;2023-05-10T06:39:55;17.50;93.40
79716;DHT22;69209;51.420;5.400;2023-05-10T06:42:21;17.60;93.20
79716;DHT22;69209;51.420;5.400;2023-05-10T06:44:46;17.70;93.00
79716;DHT22;69209;51.420;5.400;2023-05-10T06:47:12;17.80;92.70
79716;DHT22;69209;51.420;5.400;2023-05-10T06:49:38;17.90;92.60
79716;DHT22;69209;51.420;5.400;2023-05-10T06:52:03;18.10;92.30
79716;DHT22;69209;51.420;5.400;2023-05-10T06:54:29;18.10;92.20
79716;DHT22;69209;51.420;5.400;2023-05-10T06:56:55;18.10;92.40
79716;DHT22;69209;51.420;5.400;2023-05-10T06:59:20;18.00;92.60
79716;DHT22;69209;51.420;5.400;2023-05-10T07:01:47;18.00;92.80
79716;DHT22;69209;51.420;5.400;2023-05-10T07:04:12;18.00;92.90
79716;DHT22;69209;51.420;5.400;2023-05-10T07:06:38;18.10;92.60
79716;DHT22;69209;51.420;5.400;2023-05-10T07:09:04;18.10;92.50
79716;DHT22;69209;51.420;5.400;2023-05-10T07:11:29;18.10;92.50
79716;DHT22;69209;51.420;5.400;2023-05-10T07:13:55;18.20;92.50
79716;DHT22;69209;51.420;5.400;2023-05-10T07:16:21;18.20;92.70
79716;DHT22;69209;51.420;5.400;2023-05-10T07:18:47;18.10;92.70
79716;DHT22;69209;51.420;5.400;2023-05-10T07:21:12;18.10;92.80
79716;DHT22;69209;51.420;5.400;2023-05-10T07:23:38;18.10;92.90
79716;DHT22;69209;51.420;5.400;2023-05-10T07:26:03;18.10;92.80
79716;DHT22;69209;51.420;5.400;2023-05-10T07:28:29;18.10;92.70
79716;DHT22;69209;51.420;5.400;2023-05-10T07:30:54;18.10;92.70
79716;DHT22;69209;51.420;5.400;2023-05-10T07:33:20;18.10;93.00
79716;DHT22;69209;51.420;5.400;2023-05-10T07:35:45;18.10;92.80
79716;DHT22;69209;51.420;5.400;2023-05-10T07:38:11;18.20;92.70
79716;DHT22;69209;51.420;5.400;2023-05-10T07:40:36;18.30;92.60
79716;DHT22;69209;51.420;5.400;2023-05-10T07:43:02;18.40;92.40
79716;DHT22;69209;51.420;5.400;2023-05-10T07:45:28;18.40;92.30
79716;DHT22;69209;51.420;5.400;2023-05-10T07:47:53;18.50;92.20
79716;DHT22;69209;51.420;5.400;2023-05-10T07:50:19;18.50;92.10
79716;DHT22;69209;51.420;5.400;2023-05-10T07:52:46;18.60;91.90
79716;DHT22;69209;51.420;5.400;2023-05-10T07:55:12;18.60;91.80
79716;DHT22;69209;51.420;5.400;2023-05-10T07:57:37;18.60;91.80
79716;DHT22;69209;51.420;5.400;2023-05-10T08:00:03;18.60;92.00
79716;DHT22;69209;51.420;5.400;2023-05-10T08:02:29;18.60;92.30
79716;DHT22;69209;51.420;5.400;2023-05-10T08:04:54;18.50;92.40
79716;DHT22;69209;51.420;5.400;2023-05-10T08:07:21;18.40;92.50
79716;DHT22;69209;51.420;5.400;2023-05-10T08:09:46;18.40;92.50
79716;DHT22;69209;51.420;5.400;2023-05-10T08:12:12;18.40;92.40
79716;DHT22;69209;51.420;5.400;2023-05-10T08:14:39;18.50;92.40
79716;DHT22;69209;51.420;5.400;2023-05-10T08:17:04;18.60;92.20
79716;DHT22;69209;51.420;5.400;2023-05-10T08:19:30;18.70;92.00
79716;DHT22;69209;51.420;5.400;2023-05-10T08:21:55;18.70;92.00
79716;DHT22;69209;51.420;5.400;2023-05-10T08:24:21;18.80;91.90
79716;DHT22;69209;51.420;5.400;2023-05-10T08:26:46;18.80;91.90
79716;DHT22;69209;51.420;5.400;2023-05-10T08:29:13;18.80;92.00
79716;DHT22;69209;51.420;5.400;2023-05-10T08:31:38;18.80;92.00
79716;DHT22;69209;51.420;5.400;2023-05-10T08:34:04;18.90;91.60
79716;DHT22;69209;51.420;5.400;2023-05-10T08:36:29;19.10;91.20
79716;DHT22;69209;51.420;5.400;2023-05-10T08:38:55;19.30;90.90
79716;DHT22;69209;51.420;5.400;2023-05-10T08:41:21;19.40;90.60
79716;DHT22;69209;51.420;5.400;2023-05-10T08:43:49;19.40;90.60
79716;DHT22;69209;51.420;5.400;2023-05-10T08:46:16;19.40;90.50
79716;DHT22;69209;51.420;5.400;2023-05-10T08:48:45;19.50;90.40
79716;DHT22;69209;51.420;5.400;2023-05-10T08:51:17;19.60;90.20
79716;DHT22;69209;51.420;5.400;2023-05-10T08:53:43;19.80;90.00
79716;DHT22;69209;51.420;5.400;2023-05-10T08:56:08;20.00;88.30
79716;DHT22;69209;51.420;5.400;2023-05-10T08:58:34;20.30;88.00
79716;DHT22;69209;51.420;5.400;2023-05-10T09:00:59;20.40;87.20
79716;DHT22;69209;51.420;5.400;2023-05-10T09:03:25;20.60;86.60
79716;DHT22;69209;51.420;5.400;2023-05-10T09:05:51;20.70;86.00
79716;DHT22;69209;51.420;5.400;2023-05-10T09:08:17;20.70;86.00
79716;DHT22;69209;51.420;5.400;2023-05-10T09:10:43;20.70;86.20
79716;DHT22;69209;51.420;5.400;2023-05-10T09:13:09;20.90;86.20
79716;DHT22;69209;51.420;5.400;2023-05-10T09:15:35;21.20;84.60
79716;DHT22;69209;51.420;5.400;2023-05-10T09:18:01;21.60;83.00
79716;DHT22;69209;51.420;5.400;2023-05-10T09:20:27;21.80;82.30
79716;DHT22;69209;51.420;5.400;2023-05-10T09:22:53;21.90;82.00
79716;DHT22;69209;51.420;5.400;2023-05-10T09:25:18;22.00;81.80
79716;DHT22;69209;51.420;5.400;2023-05-10T09:27:44;21.90;82.00
79716;DHT22;69209;51.420;5.400;2023-05-10T09:30:10;21.70;82.60
79716;DHT22;69209;51.420;5.400;2023-05-10T09:32:44;21.60;83.50
79716;DHT22;69209;51.420;5.400;2023-05-10T09:35:10;21.50;84.30
79716;DHT22;69209;51.420;5.400;2023-05-10T09:37:36;21.40;85.20
79716;DHT22;69209;51.420;5.400;2023-05-10T09:40:05;21.30;86.00
79716;DHT22;69209;51.420;5.400;2023-05-10T09:42:33;21.20;86.60
79716;DHT22;69209;51.420;5.400;2023-05-10T09:45:05;21.10;87.20
79716;DHT22;69209;51.420;5.400;2023-05-10T09:47:34;21.10;87.30
79716;DHT22;69209;51.420;5.400;2023-05-10T09:50:00;21.40;86.20
79716;DHT22;69209;51.420;5.400;2023-05-10T09:52:30;21.60;85.30
79716;DHT22;69209;51.420;5.400;2023-05-10T09:54:56;21.50;85.50
79716;DHT22;69209;51.420;5.400;2023-05-10T09:57:21;21.50;85.80
79716;DHT22;69209;51.420;5.400;2023-05-10T09:59:47;21.50;86.20
79716;DHT22;69209;51.420;5.400;2023-05-10T10:02:13;21.60;86.00
79716;DHT22;69209;51.420;5.400;2023-05-10T10:04:39;21.80;85.00
79716;DHT22;69209;51.420;5.400;2023-05-10T10:07:05;22.40;83.10
79716;DHT22;69209;51.420;5.400;2023-05-10T10:09:31;22.80;81.30
79716;DHT22;69209;51.420;5.400;2023-05-10T10:11:57;23.20;79.80
79716;DHT22;69209;51.420;5.400;2023-05-10T10:14:22;23.50;78.60
79716;DHT22;69209;51.420;5.400;2023-05-10T10:16:49;23.80;73.10
79716;DHT22;69209;51.420;5.400;2023-05-10T10:19:16;22.80;70.30
79716;DHT22;69209;51.420;5.400;2023-05-10T10:21:42;22.00;70.00
79716;DHT22;69209;51.420;5.400;2023-05-10T10:24:07;21.60;70.50
79716;DHT22;69209;51.420;5.400;2023-05-10T10:26:33;21.50;70.00
79716;DHT22;69209;51.420;5.400;2023-05-10T10:32:45;21.60;69.00
79716;DHT22;69209;51.420;5.400;2023-05-10T10:34:34;21.60;68.50
79716;DHT22;69209;51.420;5.400;2023-05-10T10:37:03;21.00;70.70
79716;DHT22;69209;51.420;5.400;2023-05-10T10:39:29;20.90;72.20
79716;DHT22;69209;51.420;5.400;2023-05-10T10:41:56;21.40;71.20
79716;DHT22;69209;51.420;5.400;2023-05-10T10:44:22;21.70;70.90
79716;DHT22;69209;51.420;5.400;2023-05-10T10:49:23;22.30;70.60
79716;DHT22;69209;51.420;5.400;2023-05-10T10:54:32;22.40;70.80
79716;DHT22;69209;51.420;5.400;2023-05-10T10:57:13;22.30;71.30
79716;DHT22;69209;51.420;5.400;2023-05-10T10:59:42;22.20;71.50
79716;DHT22;69209;51.420;5.400;2023-05-10T11:02:09;22.20;72.50
79716;DHT22;69209;51.420;5.400;2023-05-10T11:04:41;22.10;72.70
79716;DHT22;69209;51.420;5.400;2023-05-10T11:07:16;22.00;72.90
79716;DHT22;69209;51.420;5.400;2023-05-10T11:09:43;22.00;73.10
79716;DHT22;69209;51.420;5.400;2023-05-10T11:12:08;22.00;73.30
79716;DHT22;69209;51.420;5.400;2023-05-10T11:14:34;21.90;73.40
79716;DHT22;69209;51.420;5.400;2023-05-10T11:17:00;21.90;74.00
79716;DHT22;69209;51.420;5.400;2023-05-10T11:19:29;21.80;74.30
79716;DHT22;69209;51.420;5.400;2023-05-10T11:24:29;21.70;75.00
79716;DHT22;69209;51.420;5.400;2023-05-10T11:26:54;21.60;75.10
79716;DHT22;69209;51.420;5.400;2023-05-10T11:29:20;21.60;75.30
79716;DHT22;69209;51.420;5.400;2023-05-10T11:31:46;21.60;75.20
79716;DHT22;69209;51.420;5.400;2023-05-10T11:34:13;21.60;75.40
79716;DHT22;69209;51.420;5.400;2023-05-10T11:36:50;21.70;75.10
79716;DHT22;69209;51.420;5.400;2023-05-10T11:39:15;21.80;75.00
79716;DHT22;69209;51.420;5.400;2023-05-10T11:41:41;21.70;74.90
79716;DHT22;69209;51.420;5.400;2023-05-10T11:44:07;21.80;75.10
79716;DHT22;69209;51.420;5.400;2023-05-10T11:46:34;21.70;75.30
79716;DHT22;69209;51.420;5.400;2023-05-10T11:49:01;21.50;75.70
79716;DHT22;69209;51.420;5.400;2023-05-10T11:51:29;21.40;76.50
79716;DHT22;69209;51.420;5.400;2023-05-10T11:53:56;21.40;76.70
79716;DHT22;69209;51.420;5.400;2023-05-10T11:56:21;21.50;76.40
79716;DHT22;69209;51.420;5.400;2023-05-10T11:58:52;21.60;76.00
79716;DHT22;69209;51.420;5.400;2023-05-10T12:01:18;21.70;75.80
79716;DHT22;69209;51.420;5.400;2023-05-10T12:03:43;21.80;75.40
79716;DHT22;69209;51.420;5.400;2023-05-10T12:06:09;21.80;75.20
79716;DHT22;69209;51.420;5.400;2023-05-10T12:08:35;21.80;74.80
79716;DHT22;69209;51.420;5.400;2023-05-10T12:11:04;21.90;74.60
79716;DHT22;69209;51.420;5.400;2023-05-10T12:13:29;22.10;74.10
79716;DHT22;69209;51.420;5.400;2023-05-10T12:15:58;22.30;73.20
79716;DHT22;69209;51.420;5.400;2023-05-10T12:18:24;22.60;72.40
79716;DHT22;69209;51.420;5.400;2023-05-10T12:20:53;22.90;71.30
79716;DHT22;69209;51.420;5.400;2023-05-10T12:23:19;23.30;70.00
79716;DHT22;69209;51.420;5.400;2023-05-10T12:25:45;23.50;68.90
79716;DHT22;69209;51.420;5.400;2023-05-10T12:28:10;23.80;67.80
79716;DHT22;69209;51.420;5.400;2023-05-10T12:30:36;24.20;66.80
79716;DHT22;69209;51.420;5.400;2023-05-10T12:33:06;24.30;66.00
79716;DHT22;69209;51.420;5.400;2023-05-10T12:35:32;24.10;66.20
79716;DHT22;69209;51.420;5.400;2023-05-10T12:37:58;23.80;67.40
79716;DHT22;69209;51.420;5.400;2023-05-10T12:40:24;23.70;67.50
79716;DHT22;69209;51.420;5.400;2023-05-10T12:42:49;23.60;67.80
79716;DHT22;69209;51.420;5.400;2023-05-10T12:45:16;23.40;68.30
79716;DHT22;69209;51.420;5.400;2023-05-10T12:47:42;23.20;69.00
79716;DHT22;69209;51.420;5.400;2023-05-10T12:50:08;23.00;70.00
79716;DHT22;69209;51.420;5.400;2023-05-10T12:52:33;22.80;70.80
79716;DHT22;69209;51.420;5.400;2023-05-10T12:54:59;22.60;71.30
79716;DHT22;69209;51.420;5.400;2023-05-10T12:57:25;22.50;71.60
79716;DHT22;69209;51.420;5.400;2023-05-10T12:59:51;22.50;71.80
79716;DHT22;69209;51.420;5.400;2023-05-10T13:02:17;22.40;72.00
79716;DHT22;69209;51.420;5.400;2023-05-10T13:04:46;22.30;72.40
79716;DHT22;69209;51.420;5.400;2023-05-10T13:07:12;22.30;72.90
79716;DHT22;69209;51.420;5.400;2023-05-10T13:09:37;22.20;73.10
79716;DHT22;69209;51.420;5.400;2023-05-10T13:12:03;22.10;73.60
79716;DHT22;69209;51.420;5.400;2023-05-10T13:14:29;22.00;73.80
79716;DHT22;69209;51.420;5.400;2023-05-10T13:16:55;22.00;74.00
79716;DHT22;69209;51.420;5.400;2023-05-10T13:19:20;22.00;74.50
79716;DHT22;69209;51.420;5.400;2023-05-10T13:21:46;21.80;74.90
79716;DHT22;69209;51.420;5.400;2023-05-10T13:24:12;21.70;75.60
79716;DHT22;69209;51.420;5.400;2023-05-10T13:26:42;21.50;76.40
79716;DHT22;69209;51.420;5.400;2023-05-10T13:29:07;21.30;77.80
79716;DHT22;69209;51.420;5.400;2023-05-10T13:31:34;21.10;78.80
79716;DHT22;69209;51.420;5.400;2023-05-10T13:33:59;21.00;79.50
79716;DHT22;69209;51.420;5.400;2023-05-10T13:36:25;20.90;80.00
79716;DHT22;69209;51.420;5.400;2023-05-10T13:38:50;20.80;80.40
79716;DHT22;69209;51.420;5.400;2023-05-10T13:41:16;20.60;81.10
79716;DHT22;69209;51.420;5.400;2023-05-10T13:43:41;20.50;82.20
79716;DHT22;69209;51.420;5.400;2023-05-10T13:46:07;20.40;82.80
79716;DHT22;69209;51.420;5.400;2023-05-10T13:48:32;20.20;83.20
79716;DHT22;69209;51.420;5.400;2023-05-10T13:50:58;20.10;83.80
79716;DHT22;69209;51.420;5.400;2023-05-10T13:53:24;19.90;84.50
79716;DHT22;69209;51.420;5.400;2023-05-10T13:55:49;19.70;85.90
79716;DHT22;69209;51.420;5.400;2023-05-10T13:58:15;19.50;86.90
79716;DHT22;69209;51.420;5.400;2023-05-10T14:00:40;19.30;87.90
79716;DHT22;69209;51.420;5.400;2023-05-10T14:03:06;19.20;88.70
79716;DHT22;69209;51.420;5.400;2023-05-10T14:05:32;19.10;89.40
79716;DHT22;69209;51.420;5.400;2023-05-10T14:07:57;19.00;90.00
79716;DHT22;69209;51.420;5.400;2023-05-10T14:10:23;18.90;90.20
79716;DHT22;69209;51.420;5.400;2023-05-10T14:12:49;18.80;90.40
79716;DHT22;69209;51.420;5.400;2023-05-10T14:15:14;18.80;90.70
79716;DHT22;69209;51.420;5.400;2023-05-10T14:17:40;18.70;90.90
79716;DHT22;69209;51.420;5.400;2023-05-10T14:20:06;18.70;91.20
79716;DHT22;69209;51.420;5.400;2023-05-10T14:22:31;18.60;91.30
79716;DHT22;69209;51.420;5.400;2023-05-10T14:24:57;18.60;91.40
79716;DHT22;69209;51.420;5.400;2023-05-10T14:27:23;18.50;91.60
79716;DHT22;69209;51.420;5.400;2023-05-10T14:29:49;18.50;91.70
79716;DHT22;69209;51.420;5.400;2023-05-10T14:32:15;18.50;91.80
79716;DHT22;69209;51.420;5.400;2023-05-10T14:34:40;18.50;91.80
79716;DHT22;69209;51.420;5.400;2023-05-10T14:37:06;18.50;91.70
79716;DHT22;69209;51.420;5.400;2023-05-10T14:39:31;18.60;91.80
79716;DHT22;69209;51.420;5.400;2023-05-10T14:41:58;18.60;91.60
79716;DHT22;69209;51.420;5.400;2023-05-10T14:44:23;18.60;91.50
79716;DHT22;69209;51.420;5.400;2023-05-10T14:46:49;18.70;91.60
79716;DHT22;69209;51.420;5.400;2023-05-10T14:49:15;18.60;91.70
79716;DHT22;69209;51.420;5.400;2023-05-10T14:51:40;18.60;91.90
79716;DHT22;69209;51.420;5.400;2023-05-10T14:54:06;18.40;92.10
79716;DHT22;69209;51.420;5.400;2023-05-10T14:56:32;18.40;92.20
79716;DHT22;69209;51.420;5.400;2023-05-10T14:58:57;18.40;92.40
79716;DHT22;69209;51.420;5.400;2023-05-10T15:01:24;18.40;92.30
79716;DHT22;69209;51.420;5.400;2023-05-10T15:03:50;18.40;92.40
79716;DHT22;69209;51.420;5.400;2023-05-10T15:06:16;18.40;92.50
79716;DHT22;69209;51.420;5.400;2023-05-10T15:08:41;18.30;92.50
79716;DHT22;69209;51.420;5.400;2023-05-10T15:11:07;18.30;92.60
79716;DHT22;69209;51.420;5.400;2023-05-10T15:13:32;18.30;92.90
79716;DHT22;69209;51.420;5.400;2023-05-10T15:15:58;18.20;93.00
79716;DHT22;69209;51.420;5.400;2023-05-10T15:18:23;18.10;93.10
79716;DHT22;69209;51.420;5.400;2023-05-10T15:20:49;18.10;93.30
79716;DHT22;69209;51.420;5.400;2023-05-10T15:23:14;18.00;93.40
79716;DHT22;69209;51.420;5.400;2023-05-10T15:25:40;18.00;93.40
79716;DHT22;69209;51.420;5.400;2023-05-10T15:28:05;18.00;93.50
79716;DHT22;69209;51.420;5.400;2023-05-10T15:30:31;17.90;93.60
79716;DHT22;69209;51.420;5.400;2023-05-10T15:32:57;17.90;93.70
79716;DHT22;69209;51.420;5.400;2023-05-10T15:35:22;17.90;93.80
79716;DHT22;69209;51.420;5.400;2023-05-10T15:37:48;17.80;93.90
79716;DHT22;69209;51.420;5.400;2023-05-10T15:40:14;17.80;93.90
79716;DHT22;69209;51.420;5.400;2023-05-10T15:42:40;17.80;94.00
79716;DHT22;69209;51.420;5.400;2023-05-10T15:45:05;17.80;94.10
79716;DHT22;69209;51.420;5.400;2023-05-10T15:47:31;17.80;94.10
79716;DHT22;69209;51.420;5.400;2023-05-10T15:49:57;17.70;94.20